Time;durP1;ratioP1;P1;durP2;ratioP2;P2;SDS_P1;SDS_P2;PMS_P1;PMS_P2;Temp;Humidity;BMP_temperature;BMP_pressure;BME280_temperature;BME280_humidity;BME280_pressure;Samples;Min_cycle;Max_cycle;Signal;HPM_P1;HPM_P2
2023/01/02 00:00:36;;;;;;;;;18.25;14.75;;;;;4.71;99.03;99169.06;4911422;28;103912;-69
2023/01/02 00:03:03;;;;;;;;;18.00;15.50;;;;;4.71;99.13;99172.56;4915440;28;102336;-69
2023/01/02 00:05:30;;;;;;;;;14.00;13.00;;;;;4.74;99.39;99169.59;4928795;28;102453;-68
2023/01/02 00:07:57;;;;;;;;;9.75;7.75;;;;;4.78;99.58;99164.78;4922194;28;102397;-69
2023/01/02 00:10:24;;;;;;;;;10.25;8.75;;;;;4.81;99.36;99172.53;4919129;28;104009;-70
2023/01/02 00:12:51;;;;;;;;;11.00;8.00;;;;;4.82;99.03;99166.16;4914882;28;102383;-69
2023/01/02 00:15:18;;;;;;;;;5.00;4.50;;;;;4.82;98.91;99176.88;4912273;28;102587;-68
2023/01/02 00:17:45;;;;;;;;;6.50;4.00;;;;;4.79;98.26;99169.97;4923532;28;102118;-69
2023/01/02 00:20:13;;;;;;;;;6.25;5.75;;;;;4.73;96.91;99169.72;4922039;28;104004;-69
2023/01/02 00:22:42;;;;;;;;;4.25;3.00;;;;;4.62;96.05;99164.59;4905723;28;102220;-69
2023/01/02 00:25:09;;;;;;;;;10.25;7.00;;;;;4.55;96.65;99164.34;4915468;28;104597;-68
2023/01/02 00:27:36;;;;;;;;;12.50;12.00;;;;;4.49;97.72;99165.81;4914507;28;103060;-69
2023/01/02 00:30:04;;;;;;;;;35.00;33.00;;;;;4.38;98.67;99174.00;4911684;28;104010;-69
2023/01/02 00:32:31;;;;;;;;;75.67;57.00;;;;;4.25;100.00;99180.69;4921510;28;102244;-69
2023/01/02 00:34:58;;;;;;;;;71.33;54.33;;;;;4.09;100.00;99177.81;4906260;28;102390;-69
2023/01/02 00:37:25;;;;;;;;;63.00;51.00;;;;;4.08;100.00;99176.97;4914314;28;102032;-69
2023/01/02 00:39:52;;;;;;;;;52.00;40.33;;;;;4.05;100.00;99171.91;4909326;28;103941;-69
2023/01/02 00:42:19;;;;;;;;;50.67;43.00;;;;;3.97;99.89;99185.16;4905323;28;102535;-68
2023/01/02 00:44:46;;;;;;;;;48.67;37.67;;;;;3.89;99.78;99185.03;4902275;28;102177;-69
2023/01/02 00:47:13;;;;;;;;;51.00;37.33;;;;;3.83;99.98;99174.91;4910119;28;102185;-68
2023/01/02 00:49:41;;;;;;;;;57.33;45.00;;;;;3.69;99.90;99170.03;4910096;28;103652;-69
2023/01/02 00:52:08;;;;;;;;;71.33;53.67;;;;;3.40;99.72;99154.00;4909749;28;102799;-69
2023/01/02 00:54:35;;;;;;;;;57.33;46.67;;;;;3.37;99.02;99173.88;4911386;28;102020;-69
2023/01/02 00:57:02;;;;;;;;;44.67;38.67;;;;;3.42;100.00;99166.25;4914639;28;103189;-69
2023/01/02 00:59:29;;;;;;;;;47.25;32.25;;;;;3.45;100.00;99163.31;4909660;28;105603;-69
2023/01/02 01:01:56;;;;;;;;;28.50;22.00;;;;;3.47;99.72;99164.00;4910119;28;102410;-69
2023/01/02 01:04:23;;;;;;;;;46.00;40.00;;;;;3.72;100.00;99159.88;4912564;28;102319;-69
2023/01/02 01:06:50;;;;;;;;;61.33;48.00;;;;;3.84;100.00;99152.53;4911637;28;103002;-68
2023/01/02 01:09:17;;;;;;;;;55.67;41.67;;;;;3.88;100.00;99156.59;4907562;28;104001;-68
2023/01/02 01:11:44;;;;;;;;;28.00;26.25;;;;;3.84;100.00;99153.38;4914719;28;105999;-69
2023/01/02 01:14:11;;;;;;;;;53.33;43.00;;;;;3.65;100.00;99161.44;4910975;28;102277;-69
2023/01/02 01:16:38;;;;;;;;;66.33;53.00;;;;;3.50;100.00;99158.38;4909628;28;102318;-68
2023/01/02 01:19:05;;;;;;;;;62.33;51.33;;;;;3.53;100.00;99158.09;4912773;28;104992;-69
2023/01/02 01:21:31;;;;;;;;;78.33;59.67;;;;;3.49;100.00;99156.69;4907491;28;102317;-68
2023/01/02 01:23:59;;;;;;;;;69.00;51.33;;;;;3.60;100.00;99156.50;4909665;28;102316;-69
2023/01/02 01:26:26;;;;;;;;;65.67;49.33;;;;;3.81;100.00;99158.16;4909699;28;102474;-69
2023/01/02 01:28:54;;;;;;;;;47.67;38.33;;;;;3.89;100.00;99144.91;4901059;28;104054;-68
2023/01/02 01:31:22;;;;;;;;;61.33;46.67;;;;;3.83;100.00;99140.13;4910217;28;102604;-69
2023/01/02 01:33:49;;;;;;;;;62.00;45.33;;;;;3.64;100.00;99145.53;4921012;28;104486;-69
2023/01/02 01:36:19;;;;;;;;;60.67;46.00;;;;;3.67;100.00;99151.44;4928162;28;102225;-69
2023/01/02 01:38:47;;;;;;;;;61.67;49.00;;;;;3.63;100.00;99147.38;4895628;28;104133;-69
2023/01/02 01:41:22;;;;;;;;;63.00;46.33;;;;;3.67;100.00;99142.56;4914817;28;102165;-69
2023/01/02 01:43:52;;;;;;;;;61.33;46.00;;;;;3.68;100.00;99139.78;4909603;28;110206;-69
2023/01/02 01:46:30;;;;;;;;;63.67;47.67;;;;;3.60;100.00;99135.13;4898041;28;101987;-69
2023/01/02 01:49:07;;;;;;;;;69.00;53.00;;;;;3.33;100.00;99118.97;4911073;28;108718;-68
2023/01/02 01:51:42;;;;;;;;;69.67;51.00;;;;;3.29;100.00;99116.78;4892814;28;102464;-69
2023/01/02 01:54:13;;;;;;;;;55.33;44.33;;;;;3.33;100.00;99129.66;4883453;28;106500;-69
2023/01/02 01:56:46;;;;;;;;;44.33;36.00;;;;;3.41;100.00;99113.78;4929698;28;101977;-69
2023/01/02 01:59:13;;;;;;;;;20.33;19.00;;;;;3.46;100.00;99100.84;4920766;28;103949;-69
2023/01/02 02:01:42;;;;;;;;;25.00;21.00;;;;;3.46;100.00;99095.50;4913314;28;102215;-70
2023/01/02 02:04:10;;;;;;;;;22.75;17.75;;;;;3.46;100.00;99090.16;4921694;28;102354;-69
2023/01/02 02:06:38;;;;;;;;;16.75;12.50;;;;;3.42;100.00;99093.25;4914223;28;102342;-70
2023/01/02 02:09:41;;;;;;;;;18.00;15.00;;;;;3.37;100.00;99088.34;4925646;28;104076;-68
2023/01/02 02:12:23;;;;;;;;;32.00;30.67;;;;;3.29;100.00;99093.53;4902875;28;102071;-68
2023/01/02 02:15:28;;;;;;;;;40.33;34.00;;;;;3.43;100.00;99089.56;4910284;28;102194;-68
2023/01/02 02:18:28;;;;;;;;;30.50;25.00;;;;;3.45;100.00;99092.97;4919324;28;102457;-70
2023/01/02 02:21:36;;;;;;;;;23.25;19.50;;;;;3.37;100.00;99083.00;4884698;28;108619;-69
2023/01/02 02:24:38;;;;;;;;;26.75;21.50;;;;;3.27;100.00;99094.69;4895781;28;102036;-69
2023/01/02 02:27:53;;;;;;;;;17.75;14.75;;;;;3.30;100.00;99094.38;4876060;28;102517;-69
2023/01/02 02:30:39;;;;;;;;;13.75;10.00;;;;;3.30;100.00;99094.38;4899396;28;103517;-69
2023/01/02 02:33:27;;;;;;;;;14.75;11.75;;;;;3.26;100.00;99087.63;4909912;28;104230;-69
2023/01/02 02:36:03;;;;;;;;;10.00;6.00;;;;;3.19;100.00;99083.88;4905303;28;102677;-71
2023/01/02 02:39:10;;;;;;;;;18.50;17.00;;;;;3.00;99.42;99084.72;4897743;28;102298;-69
2023/01/02 02:41:57;;;;;;;;;50.33;40.00;;;;;2.78;100.00;99090.34;4903394;28;102085;-68
2023/01/02 02:45:09;;;;;;;;;53.00;40.33;;;;;2.79;100.00;99094.72;4892810;28;108876;-69
2023/01/02 02:47:48;;;;;;;;;50.67;39.33;;;;;2.69;100.00;99087.53;4898637;28;102534;-68
2023/01/02 02:50:38;;;;;;;;;39.67;32.67;;;;;2.78;100.00;99085.00;4903015;28;101973;-69
2023/01/02 02:53:19;;;;;;;;;27.50;24.00;;;;;2.83;100.00;99083.63;4886342;28;102467;-69
2023/01/02 02:56:00;;;;;;;;;25.25;21.00;;;;;2.84;100.00;99071.06;4900327;28;104019;-69
2023/01/02 02:58:28;;;;;;;;;15.75;13.50;;;;;2.80;100.00;99081.19;4911377;28;102028;-69
2023/01/02 03:01:05;;;;;;;;;15.50;14.25;;;;;2.64;100.00;99052.41;4896169;28;102174;-69
2023/01/02 03:03:33;;;;;;;;;22.75;16.00;;;;;2.79;100.00;99066.19;4906540;28;102220;-69
2023/01/02 03:06:15;;;;;;;;;21.00;14.25;;;;;2.72;100.00;99061.53;4886186;28;104054;-70
2023/01/02 03:09:12;;;;;;;;;13.25;10.75;;;;;2.75;100.00;99069.28;4902930;28;101999;-69
2023/01/02 03:11:45;;;;;;;;;11.00;8.75;;;;;2.74;100.00;99064.91;4901891;28;102296;-69
2023/01/02 03:14:23;;;;;;;;;7.00;6.00;;;;;2.74;100.00;99067.59;4900815;28;102464;-68
2023/01/02 03:16:59;;;;;;;;;11.00;8.25;;;;;2.70;99.83;99065.19;4903409;28;104048;-69
2023/01/02 03:19:36;;;;;;;;;9.75;9.75;;;;;2.63;98.19;99058.72;4898162;28;102920;-68
2023/01/02 03:22:14;;;;;;;;;8.00;6.25;;;;;2.56;98.08;99049.59;4914503;28;101964;-69
2023/01/02 03:24:43;;;;;;;;;10.50;8.25;;;;;2.52;98.82;99050.84;4906325;28;101964;-68
2023/01/02 03:27:21;;;;;;;;;11.00;9.00;;;;;2.53;99.29;99057.03;4912879;28;105202;-69
2023/01/02 03:30:02;;;;;;;;;25.25;21.75;;;;;2.57;100.00;99053.94;4916978;28;102269;-69
2023/01/02 03:32:34;;;;;;;;;22.75;19.25;;;;;2.63;100.00;99063.22;4903136;28;102044;-69
2023/01/02 03:35:07;;;;;;;;;79.67;58.00;;;;;2.61;100.00;99060.66;4915950;28;103312;-69
2023/01/02 03:37:39;;;;;;;;;72.67;58.00;;;;;2.55;100.00;99047.06;4918144;28;103481;-69
2023/01/02 03:40:12;;;;;;;;;66.67;51.33;;;;;2.65;100.00;99050.59;4905383;28;102704;-69
2023/01/02 03:42:49;;;;;;;;;71.67;54.33;;;;;2.55;100.00;99041.72;4878858;28;102202;-69
2023/01/02 03:45:21;;;;;;;;;65.67;46.00;;;;;2.43;100.00;99040.19;4912341;28;103546;-69
2023/01/02 03:47:56;;;;;;;;;63.33;46.00;;;;;2.23;100.00;99017.94;4915965;28;104227;-69
2023/01/02 03:50:39;;;;;;;;;41.67;34.33;;;;;2.51;100.00;99051.00;4897670;28;102313;-69
2023/01/02 03:53:06;;;;;;;;;45.67;32.67;;;;;2.49;100.00;99045.78;4906876;28;102368;-69
2023/01/02 03:55:39;;;;;;;;;27.50;22.50;;;;;2.44;100.00;99026.69;4917602;28;102076;-69
2023/01/02 03:58:11;;;;;;;;;24.50;15.00;;;;;2.58;100.00;99046.78;4912577;28;104532;-69
2023/01/02 04:00:52;;;;;;;;;15.50;14.50;;;;;2.51;100.00;99041.16;4914012;28;104302;-69
2023/01/02 04:03:51;;;;;;;;;13.25;11.50;;;;;2.34;100.00;99017.84;4899506;28;104303;-69
2023/01/02 04:06:31;;;;;;;;;11.50;10.00;;;;;2.40;100.00;99041.28;4910897;28;102197;-69
2023/01/02 04:09:09;;;;;;;;;27.50;22.50;;;;;2.15;99.00;99047.16;4878228;28;108783;-69
2023/01/02 04:11:40;;;;;;;;;57.33;43.00;;;;;1.97;100.00;99043.44;4915775;28;102923;-69
2023/01/02 04:14:17;;;;;;;;;40.00;36.33;;;;;2.04;100.00;99039.25;4908830;28;102031;-69
2023/01/02 04:16:48;;;;;;;;;12.33;12.00;;;;;2.07;100.00;99023.00;4913722;28;102218;-69
2023/01/02 04:19:24;;;;;;;;;18.25;16.25;;;;;2.10;100.00;99020.88;4913270;28;103994;-69
2023/01/02 04:21:57;;;;;;;;;15.50;12.50;;;;;2.13;100.00;99022.41;4908299;28;104847;-69
2023/01/02 04:24:30;;;;;;;;;10.75;10.75;;;;;2.12;100.00;99018.91;4916879;28;102113;-69
2023/01/02 04:27:07;;;;;;;;;10.00;9.00;;;;;2.14;100.00;99024.13;4911467;28;102501;-69
2023/01/02 04:29:34;;;;;;;;;8.25;4.50;;;;;2.19;100.00;99016.53;4912842;28;104267;-69
2023/01/02 04:32:12;;;;;;;;;9.50;8.50;;;;;2.26;100.00;99023.00;4918373;28;103116;-70
2023/01/02 04:34:41;;;;;;;;;5.00;5.00;;;;;2.25;100.00;99008.00;4914009;28;102200;-69
2023/01/02 04:37:08;;;;;;;;;16.75;15.25;;;;;2.35;100.00;99016.84;4895684;28;102538;-69
2023/01/02 04:39:36;;;;;;;;;31.75;24.00;;;;;2.39;100.00;99020.06;4889592;28;103963;-69
2023/01/02 04:42:03;;;;;;;;;24.50;21.25;;;;;2.42;100.00;99017.97;4911308;28;102199;-70
2023/01/02 04:44:30;;;;;;;;;18.25;15.00;;;;;2.49;100.00;99015.56;4910756;28;102001;-68
2023/01/02 04:46:57;;;;;;;;;9.50;8.50;;;;;2.54;100.00;99011.50;4911953;28;102403;-68
2023/01/02 04:49:25;;;;;;;;;9.00;6.75;;;;;2.61;100.00;99017.97;4907904;28;105276;-69
2023/01/02 04:51:52;;;;;;;;;8.25;6.00;;;;;2.66;100.00;99015.72;4892529;28;104501;-69
2023/01/02 04:54:19;;;;;;;;;7.00;5.25;;;;;2.75;100.00;99007.88;4914534;28;102254;-69
2023/01/02 04:56:46;;;;;;;;;7.50;5.00;;;;;2.82;100.00;99003.63;4923565;28;102884;-69
2023/01/02 04:59:13;;;;;;;;;6.25;5.75;;;;;2.89;100.00;99002.06;4914625;28;104010;-69
2023/01/02 05:01:40;;;;;;;;;7.25;6.00;;;;;2.92;100.00;99012.47;4914750;28;102453;-69
2023/01/02 05:04:07;;;;;;;;;5.75;5.00;;;;;2.93;100.00;99006.97;4915697;28;102269;-69
2023/01/02 05:06:34;;;;;;;;;3.00;3.00;;;;;2.96;100.00;99017.41;4923032;28;102286;-69
2023/01/02 05:09:01;;;;;;;;;10.00;8.00;;;;;2.91;100.00;98998.28;4897074;28;104897;-69
2023/01/02 05:11:28;;;;;;;;;10.00;9.25;;;;;2.99;100.00;98998.41;4908413;28;102193;-70
2023/01/02 05:13:55;;;;;;;;;41.00;30.33;;;;;3.04;100.00;99006.00;4914454;28;102434;-69
2023/01/02 05:16:28;;;;;;;;;47.00;41.00;;;;;3.09;100.00;99009.06;4910718;28;102926;-69
2023/01/02 05:18:55;;;;;;;;;60.67;43.33;;;;;3.11;100.00;99009.75;4898346;28;104025;-69
2023/01/02 05:24:07;;;;;;;;;73.67;56.00;;;;;2.86;100.00;99018.38;4911593;28;102184;-68
2023/01/02 05:26:34;;;;;;;;;68.00;51.33;;;;;2.55;100.00;99017.69;4917492;28;103430;-69
2023/01/02 05:29:01;;;;;;;;;71.33;54.67;;;;;2.18;100.00;99014.84;4914103;28;104282;-70
2023/01/02 05:31:28;;;;;;;;;75.67;57.67;;;;;2.08;100.00;99019.31;4909119;28;102653;-69
2023/01/02 05:33:58;;;;;;;;;62.33;46.67;;;;;2.03;100.00;99013.56;4901227;28;102221;-69
2023/01/02 05:36:26;;;;;;;;;60.00;49.33;;;;;1.84;100.00;99010.88;4914422;28;102315;-69
2023/01/02 05:38:54;;;;;;;;;63.33;48.33;;;;;1.72;100.00;99018.09;4872296;28;108744;-69
2023/01/02 05:41:22;;;;;;;;;64.33;49.00;;;;;1.68;100.00;99012.19;4909409;28;102199;-69
2023/01/02 05:43:49;;;;;;;;;40.00;35.67;;;;;1.67;100.00;99015.84;4918587;28;102239;-69
2023/01/02 05:46:18;;;;;;;;;35.33;29.00;;;;;1.59;100.00;99006.84;4916921;28;102445;-68
2023/01/02 05:48:46;;;;;;;;;63.67;47.67;;;;;1.29;99.33;99021.03;4919409;28;103467;-69
2023/01/02 05:51:15;;;;;;;;;79.33;58.00;;;;;1.03;100.00;99025.94;4926391;28;102510;-68
2023/01/02 05:53:42;;;;;;;;;59.33;45.33;;;;;1.13;100.00;99032.13;4915859;28;102277;-70
2023/01/02 05:56:16;;;;;;;;;58.00;44.00;;;;;1.17;100.00;99033.56;4901969;28;102267;-69
2023/01/02 05:58:45;;;;;;;;;36.33;30.00;;;;;1.07;100.00;98990.06;4881798;28;104057;-69
2023/01/02 06:01:15;;;;;;;;;25.67;22.00;;;;;1.32;100.00;99031.41;4899380;28;102847;-69
2023/01/02 06:03:50;;;;;;;;;30.67;27.67;;;;;1.29;100.00;99042.31;4926935;28;105035;-69
2023/01/02 06:06:21;;;;;;;;;57.00;45.33;;;;;1.11;100.00;99043.91;4909300;28;104059;-69
2023/01/02 06:08:48;;;;;;;;;81.67;56.33;;;;;1.06;100.00;99046.09;4914289;28;104164;-69
2023/01/02 06:11:16;;;;;;;;;66.00;50.67;;;;;1.13;100.00;99048.09;4918409;28;102283;-68
2023/01/02 06:13:43;;;;;;;;;69.33;52.00;;;;;1.14;100.00;99048.97;4909397;28;102254;-71
2023/01/02 06:16:10;;;;;;;;;55.00;43.33;;;;;1.22;100.00;99047.31;4913801;28;102596;-70
2023/01/02 06:18:38;;;;;;;;;34.67;26.00;;;;;1.21;100.00;99045.66;4932795;28;103877;-70
2023/01/02 06:21:14;;;;;;;;;49.67;36.33;;;;;1.13;100.00;99053.44;4926793;28;102273;-71
2023/01/02 06:23:42;;;;;;;;;29.67;25.00;;;;;1.13;100.00;99052.59;4922199;28;102302;-70
2023/01/02 06:26:15;;;;;;;;;24.67;21.00;;;;;1.12;100.00;99046.44;4936007;28;101988;-70
2023/01/02 06:28:43;;;;;;;;;17.33;14.00;;;;;1.12;100.00;99034.94;4935412;28;103937;-70
2023/01/02 06:31:14;;;;;;;;;46.33;37.67;;;;;1.00;100.00;99044.81;4932787;28;102660;-69
2023/01/02 06:33:41;;;;;;;;;29.00;24.33;;;;;0.98;100.00;99044.09;4922856;28;101834;-71
2023/01/02 06:36:11;;;;;;;;;28.67;21.67;;;;;1.02;100.00;99042.03;4909143;28;102795;-70
2023/01/02 06:38:38;;;;;;;;;25.00;21.33;;;;;1.06;100.00;99046.97;4914690;28;104130;-71
2023/01/02 06:41:07;;;;;;;;;41.67;31.33;;;;;1.06;100.00;99046.97;4919442;28;102310;-70
2023/01/02 06:43:35;;;;;;;;;40.00;36.00;;;;;1.06;100.00;99046.09;4919733;28;102210;-70
2023/01/02 06:46:04;;;;;;;;;29.00;22.00;;;;;1.10;100.00;99042.22;4926839;28;102074;-70
2023/01/02 06:48:32;;;;;;;;;35.00;29.33;;;;;1.07;100.00;99047.81;4934520;28;104029;-69
2023/01/02 06:51:03;;;;;;;;;36.33;31.00;;;;;1.05;100.00;99047.94;4921750;28;102473;-70
2023/01/02 06:53:35;;;;;;;;;55.33;42.33;;;;;1.11;100.00;99046.56;4925297;28;102188;-71
2023/01/02 06:56:03;;;;;;;;;36.33;24.33;;;;;1.13;100.00;99028.63;4931722;28;102056;-69
2023/01/02 06:58:34;;;;;;;;;35.33;29.00;;;;;1.24;100.00;99028.56;4929168;28;104057;-70
2023/01/02 07:01:07;;;;;;;;;48.33;40.00;;;;;1.23;100.00;99037.50;4912316;28;102263;-71
2023/01/02 07:03:35;;;;;;;;;37.00;30.33;;;;;1.29;100.00;99042.31;4922055;28;102528;-70
2023/01/02 07:06:05;;;;;;;;;66.67;51.00;;;;;1.28;100.00;99029.97;4935688;28;101976;-71
2023/01/02 07:08:35;;;;;;;;;49.00;35.33;;;;;1.39;100.00;99034.38;4912296;28;104201;-70
2023/01/02 07:11:14;;;;;;;;;45.00;37.00;;;;;1.52;100.00;99033.19;4928183;28;102637;-70
2023/01/02 07:13:42;;;;;;;;;32.33;29.00;;;;;1.54;100.00;99028.56;4928113;28;102010;-69
2023/01/02 07:16:12;;;;;;;;;44.67;40.00;;;;;1.51;100.00;99031.50;4933643;28;102447;-70
2023/01/02 07:18:39;;;;;;;;;60.67;42.67;;;;;1.48;100.00;99023.78;4929075;28;104065;-70
2023/01/02 07:21:08;;;;;;;;;65.00;47.67;;;;;1.47;100.00;99013.25;4896731;28;102132;-70
2023/01/02 07:23:35;;;;;;;;;60.00;47.00;;;;;1.53;100.00;99013.53;4926542;28;102339;-70
2023/01/02 07:26:05;;;;;;;;;50.67;41.67;;;;;1.74;100.00;99024.16;4922940;28;102079;-70
2023/01/02 07:28:34;;;;;;;;;30.00;29.33;;;;;1.83;100.00;99007.34;4932466;28;104247;-69
2023/01/02 07:31:03;;;;;;;;;37.00;33.00;;;;;1.97;100.00;99022.97;4911795;28;102430;-70
2023/01/02 07:33:31;;;;;;;;;15.00;13.67;;;;;2.05;100.00;99023.13;4933806;28;102086;-71
2023/01/02 07:36:00;;;;;;;;;38.67;29.00;;;;;2.08;100.00;99014.00;4893464;28;102386;-69
2023/01/02 07:38:27;;;;;;;;;42.00;30.67;;;;;2.13;100.00;99022.41;4930630;28;108849;-70
2023/01/02 07:40:54;;;;;;;;;33.67;23.67;;;;;2.25;100.00;99016.81;4911006;28;102268;-71
2023/01/02 07:43:22;;;;;;;;;19.33;15.00;;;;;2.37;100.00;99014.03;4893319;28;103611;-69
2023/01/02 07:45:49;;;;;;;;;14.75;14.00;;;;;2.46;100.00;99019.38;4915053;28;102576;-70
2023/01/02 07:48:19;;;;;;;;;17.50;14.50;;;;;2.46;100.00;99003.38;4927092;28;104009;-69
2023/01/02 07:50:47;;;;;;;;;13.00;11.50;;;;;2.57;100.00;99005.88;4915769;28;102333;-69
2023/01/02 07:53:14;;;;;;;;;10.25;8.50;;;;;2.69;100.00;99019.94;4933777;28;102290;-70
2023/01/02 07:55:41;;;;;;;;;11.50;10.75;;;;;2.81;100.00;99009.94;4902859;28;102645;-70
2023/01/02 07:58:08;;;;;;;;;8.50;7.00;;;;;2.88;99.95;99008.41;4912083;28;104020;-70
2023/01/02 08:00:35;;;;;;;;;14.00;13.75;;;;;2.98;99.63;99003.88;4910567;28;102322;-69
2023/01/02 08:03:03;;;;;;;;;10.75;7.25;;;;;3.05;99.58;99000.50;4926538;28;102213;-70
2023/01/02 08:05:33;;;;;;;;;13.00;10.50;;;;;3.13;99.78;99000.63;4917967;28;102253;-70
2023/01/02 08:08:00;;;;;;;;;4.50;3.00;;;;;3.20;98.83;99003.53;4933184;28;104429;-71
2023/01/02 08:10:27;;;;;;;;;9.00;8.25;;;;;3.24;99.21;99002.28;4925170;28;102273;-69
2023/01/02 08:12:56;;;;;;;;;11.25;8.50;;;;;3.28;99.17;98995.66;4915842;28;107704;-70
2023/01/02 08:15:24;;;;;;;;;14.50;12.00;;;;;3.36;99.30;98995.78;4931078;28;102183;-70
2023/01/02 08:17:51;;;;;;;;;61.67;48.00;;;;;3.35;99.24;99004.78;4932731;28;104044;-71
2023/01/02 08:20:18;;;;;;;;;82.75;59.25;;;;;3.42;100.00;98995.16;4927982;28;102245;-71
2023/01/02 08:22:45;;;;;;;;;64.67;52.67;;;;;3.55;100.00;98985.03;4924009;28;102215;-71
2023/01/02 08:25:12;;;;;;;;;64.00;42.67;;;;;3.69;100.00;98991.72;4930035;28;102350;-70
2023/01/02 08:27:39;;;;;;;;;40.67;34.00;;;;;3.84;100.00;98992.03;4929743;28;104004;-70
2023/01/02 08:30:07;;;;;;;;;34.25;25.75;;;;;3.95;100.00;98991.84;4929659;28;102166;-71
2023/01/02 08:32:36;;;;;;;;;51.67;41.00;;;;;4.03;99.71;98994.59;4926956;28;104340;-69
2023/01/02 08:35:05;;;;;;;;;56.67;47.00;;;;;4.12;100.00;98990.19;4932392;28;102396;-70
2023/01/02 08:37:32;;;;;;;;;47.67;41.00;;;;;4.24;100.00;98995.16;4917758;28;103860;-70
2023/01/02 08:39:59;;;;;;;;;29.50;29.00;;;;;4.30;100.00;98983.88;4932733;28;102386;-72
2023/01/02 08:42:26;;;;;;;;;32.25;27.75;;;;;4.45;100.00;98990.38;4897644;28;102495;-71
2023/01/02 08:44:55;;;;;;;;;36.75;24.75;;;;;4.57;99.98;98998.16;4933336;28;102175;-71
2023/01/02 08:47:22;;;;;;;;;31.75;25.50;;;;;4.66;100.00;98994.56;4920236;28;104014;-70
2023/01/02 08:49:49;;;;;;;;;29.00;25.00;;;;;4.81;100.00;98998.38;4931867;28;102394;-71
2023/01/02 08:52:16;;;;;;;;;21.75;17.00;;;;;4.93;100.00;99003.34;4922564;28;102534;-71
2023/01/02 08:54:43;;;;;;;;;26.00;21.25;;;;;5.07;100.00;99001.94;4933040;28;102079;-70
2023/01/02 08:57:10;;;;;;;;;19.25;16.75;;;;;5.20;99.99;99009.56;4904245;28;104070;-71
2023/01/02 08:59:37;;;;;;;;;17.00;16.50;;;;;5.29;99.99;99000.56;4871737;28;102529;-70
2023/01/02 09:02:04;;;;;;;;;40.75;35.75;;;;;5.39;99.55;98993.28;4893919;28;102067;-71
2023/01/02 09:04:31;;;;;;;;;37.25;28.25;;;;;5.51;99.91;98996.50;4930590;28;102028;-70
2023/01/02 09:06:58;;;;;;;;;31.25;26.00;;;;;5.53;100.00;98973.06;4934104;28;104163;-71
2023/01/02 09:09:25;;;;;;;;;24.50;21.75;;;;;5.67;99.86;98981.34;4932823;28;102484;-72
2023/01/02 09:11:52;;;;;;;;;19.50;16.75;;;;;5.77;99.50;98983.91;4920617;28;101974;-71
2023/01/02 09:14:20;;;;;;;;;11.25;10.00;;;;;5.75;99.77;98956.41;4910377;28;104971;-70
2023/01/02 09:16:49;;;;;;;;;22.00;18.25;;;;;6.01;99.93;98972.44;4929451;28;104004;-71
2023/01/02 09:19:16;;;;;;;;;15.25;13.00;;;;;6.21;99.67;98980.03;4929456;28;102196;-70
2023/01/02 09:21:44;;;;;;;;;17.75;16.00;;;;;6.33;98.83;98982.44;4917603;28;102229;-71
2023/01/02 09:24:11;;;;;;;;;28.25;22.25;;;;;6.45;97.74;98984.63;4926530;28;102099;-70
2023/01/02 09:26:40;;;;;;;;;20.75;17.50;;;;;6.58;97.13;98973.41;4910293;28;103950;-70
2023/01/02 09:29:09;;;;;;;;;22.25;16.75;;;;;6.70;96.20;98972.94;4923427;28;102077;-69
2023/01/02 09:31:37;;;;;;;;;23.00;21.75;;;;;6.85;96.19;98972.22;4932649;28;102460;-71
2023/01/02 09:34:04;;;;;;;;;12.50;10.50;;;;;6.99;96.05;98969.72;4931021;28;102410;-71
2023/01/02 09:36:31;;;;;;;;;18.25;16.25;;;;;7.13;95.00;98966.34;4923105;28;104012;-71
2023/01/02 09:39:00;;;;;;;;;21.50;17.50;;;;;7.13;93.77;98931.38;4918289;28;102294;-71
2023/01/02 09:41:38;;;;;;;;;24.00;19.00;;;;;7.42;91.53;98959.56;4906924;28;102038;-71
2023/01/02 09:44:24;;;;;;;;;21.00;17.50;;;;;7.54;89.77;98948.25;4916701;28;102200;-71
2023/01/02 09:46:59;;;;;;;;;23.50;18.25;;;;;7.62;89.29;98956.28;4926493;28;103981;-71
2023/01/02 09:49:54;;;;;;;;;25.75;20.75;;;;;7.70;88.24;98957.28;4930416;28;102292;-70
2023/01/02 09:52:26;;;;;;;;;26.75;23.25;;;;;7.78;87.96;98955.41;4903693;28;102216;-70
2023/01/02 09:54:53;;;;;;;;;22.00;21.00;;;;;7.87;87.10;98946.28;4918496;28;102711;-71
2023/01/02 09:57:27;;;;;;;;;25.50;22.50;;;;;7.96;86.43;98953.31;4918708;28;104333;-71
2023/01/02 10:00:34;;;;;;;;;32.75;28.00;;;;;8.04;85.91;98950.56;4925257;28;102076;-71
2023/01/02 10:03:22;;;;;;;;;26.50;22.75;;;;;8.11;85.33;98949.84;4884846;28;102098;-70
2023/01/02 10:06:07;;;;;;;;;30.50;25.75;;;;;8.14;84.43;98960.28;4909700;28;104502;-71
2023/01/02 10:08:59;;;;;;;;;27.00;21.25;;;;;8.13;84.55;98937.03;4904833;28;111241;-71
2023/01/02 10:11:29;;;;;;;;;21.00;19.75;;;;;8.29;83.77;98953.09;4917743;28;102282;-70
2023/01/02 10:14:11;;;;;;;;;19.00;15.00;;;;;8.40;83.71;98950.03;4910210;28;102016;-71
2023/01/02 10:16:53;;;;;;;;;22.50;20.50;;;;;8.54;83.03;98946.56;4914912;28;102078;-71
2023/01/02 10:19:45;;;;;;;;;16.50;13.50;;;;;8.65;81.84;98932.66;4914923;28;103714;-70
2023/01/02 10:22:18;;;;;;;;;14.00;13.50;;;;;8.80;81.50;98921.94;4916535;28;102004;-70
2023/01/02 10:24:54;;;;;;;;;13.25;13.25;;;;;8.92;81.59;98924.00;4917166;28;102480;-71
2023/01/02 10:27:28;;;;;;;;;15.50;12.25;;;;;9.02;80.56;98910.25;4923700;28;103121;-71
2023/01/02 10:30:14;;;;;;;;;17.25;15.25;;;;;9.19;80.70;98914.47;4920038;28;110575;-70
2023/01/02 10:32:47;;;;;;;;;16.00;12.50;;;;;9.28;79.81;98907.13;4928445;28;102266;-70
2023/01/02 10:35:25;;;;;;;;;16.50;14.50;;;;;9.36;78.40;98905.19;4933924;28;101932;-70
2023/01/02 10:37:55;;;;;;;;;20.50;16.25;;;;;9.44;78.76;98912.34;4923638;28;102383;-70
2023/01/02 10:40:23;;;;;;;;;16.25;13.75;;;;;9.51;78.04;98905.16;4917429;28;103972;-71
2023/01/02 10:42:56;;;;;;;;;13.25;13.00;;;;;9.56;78.26;98899.22;4899744;28;104073;-70
2023/01/02 10:45:26;;;;;;;;;13.50;12.25;;;;;9.52;78.83;98885.25;4899818;28;102360;-70
2023/01/02 10:47:53;;;;;;;;;18.75;17.00;;;;;9.62;77.86;98891.22;4927414;28;102402;-70
2023/01/02 10:50:24;;;;;;;;;17.25;13.00;;;;;9.68;78.29;98893.16;4921022;28;104079;-70
2023/01/02 10:53:04;;;;;;;;;16.00;15.00;;;;;9.71;78.84;98881.16;4921936;28;102545;-70
2023/01/02 10:55:41;;;;;;;;;8.75;7.50;;;;;9.82;78.50;98889.59;4921122;28;102066;-70
2023/01/02 10:58:26;;;;;;;;;15.00;10.00;;;;;9.89;77.65;98872.63;4915977;28;101906;-70
2023/01/02 11:01:17;;;;;;;;;11.75;10.75;;;;;9.86;77.10;98863.88;4920915;28;108611;-72
2023/01/02 11:04:10;;;;;;;;;13.50;12.00;;;;;10.02;77.41;98880.88;4911568;28;102352;-70
2023/01/02 11:06:59;;;;;;;;;11.25;9.00;;;;;10.10;77.20;98880.75;4920039;28;101959;-69
2023/01/02 11:09:29;;;;;;;;;9.00;8.00;;;;;10.18;76.36;98877.97;4935321;28;102034;-71
2023/01/02 11:12:11;;;;;;;;;12.25;9.00;;;;;10.24;76.43;98869.09;4932846;28;108567;-71
2023/01/02 11:14:39;;;;;;;;;15.00;10.00;;;;;10.27;75.82;98860.59;4927589;28;102160;-70
2023/01/02 11:17:12;;;;;;;;;9.00;8.25;;;;;10.35;76.06;98868.59;4897014;28;102650;-71
2023/01/02 11:19:41;;;;;;;;;6.00;6.00;;;;;10.40;76.15;98860.72;4919742;28;102187;-70
2023/01/02 11:22:14;;;;;;;;;8.25;8.25;;;;;10.44;75.79;98859.34;4931683;28;102978;-70
2023/01/02 11:25:01;;;;;;;;;10.75;10.00;;;;;10.53;75.27;98858.19;4913153;28;102246;-70
2023/01/02 11:27:40;;;;;;;;;8.75;8.00;;;;;10.56;74.75;98849.66;4929622;28;102334;-69
2023/01/02 11:30:26;;;;;;;;;13.00;10.00;;;;;10.61;74.53;98849.06;4929387;28;102531;-70
2023/01/02 11:33:13;;;;;;;;;9.00;9.00;;;;;10.66;74.30;98850.19;4928533;28;104414;-70
2023/01/02 11:35:51;;;;;;;;;11.75;9.50;;;;;10.69;74.50;98844.38;4905549;28;102446;-70
2023/01/02 11:38:21;;;;;;;;;11.50;11.00;;;;;10.73;74.74;98853.75;4914869;28;102230;-70
2023/01/02 11:41:01;;;;;;;;;17.00;14.50;;;;;10.80;74.26;98855.69;4923080;28;102964;-70